Time;durP1;ratioP1;P1;durP2;ratioP2;P2;SDS_P1;SDS_P2;PMS_P1;PMS_P2;Temp;Humidity;BMP_temperature;BMP_pressure;BME280_temperature;BME280_humidity;BME280_pressure;Samples;Min_cycle;Max_cycle;Signal;HPM_P1;HPM_P2
2023/07/09 00:01:41;;;;;;;4.63;4.07;;;;;;;24.36;50.31;97506.56;6017375;23;20007;-79
2023/07/09 00:04:13;;;;;;;4.15;3.50;;;;;;;24.39;50.59;97509.34;6026362;23;19999;-79
2023/07/09 00:06:39;;;;;;;5.43;4.78;;;;;;;24.31;50.48;97504.88;5993113;23;20008;-79
2023/07/09 00:09:06;;;;;;;5.05;4.10;;;;;;;24.32;50.46;97514.41;6040436;23;20007;-79
2023/07/09 00:11:32;;;;;;;4.78;4.28;;;;;;;24.29;50.94;97515.06;5952945;23;20014;-79
2023/07/09 00:13:57;;;;;;;5.18;4.22;;;;;;;24.27;50.60;97511.97;6017223;23;20027;-79
2023/07/09 00:16:24;;;;;;;5.63;5.05;;;;;;;24.20;50.74;97504.50;5955651;23;20650;-79
2023/07/09 00:18:50;;;;;;;5.25;4.05;;;;;;;24.20;50.84;97512.47;6074059;23;20054;-79
2023/07/09 00:21:17;;;;;;;4.53;4.13;;;;;;;24.26;50.37;97510.38;6016577;23;20481;-79
2023/07/09 00:23:43;;;;;;;6.10;4.57;;;;;;;24.29;50.69;97504.41;6015462;23;20003;-80
2023/07/09 00:26:15;;;;;;;5.25;4.28;;;;;;;24.39;50.13;97516.56;6017367;23;20004;-79
2023/07/09 00:28:44;;;;;;;5.07;3.88;;;;;;;24.37;50.27;97508.91;6049674;23;20003;-79
2023/07/09 00:31:17;;;;;;;4.82;4.10;;;;;;;24.41;50.54;97517.78;6041536;23;20012;-79
2023/07/09 00:33:43;;;;;;;5.28;3.97;;;;;;;24.35;49.84;97513.78;5994120;23;20007;-79
2023/07/09 00:36:18;;;;;;;5.03;4.10;;;;;;;24.38;50.48;97515.00;6075612;23;20011;-79
2023/07/09 00:38:47;;;;;;;6.30;3.70;;;;;;;24.25;50.49;97514.16;6042196;23;20027;-79
2023/07/09 00:41:18;;;;;;;4.97;4.00;;;;;;;24.30;49.92;97519.28;6019353;23;20008;-79
2023/07/09 00:43:46;;;;;;;4.60;3.97;;;;;;;24.23;50.38;97513.69;6051506;23;20070;-79
2023/07/09 00:46:22;;;;;;;6.88;3.83;;;;;;;24.31;50.08;97520.84;6039203;23;20007;-79
2023/07/09 00:48:50;;;;;;;4.45;3.70;;;;;;;24.19;50.53;97513.56;5951600;23;20038;-79
2023/07/09 00:51:20;;;;;;;5.25;3.63;;;;;;;24.20;50.17;97522.34;6039073;23;20057;-80
2023/07/09 00:53:54;;;;;;;4.95;3.90;;;;;;;24.18;50.78;97516.56;6042508;23;20027;-80
2023/07/09 00:56:33;;;;;;;6.00;4.32;;;;;;;24.03;50.74;97508.06;6052111;23;20015;-83
2023/07/09 00:59:04;;;;;;;4.63;4.18;;;;;;;23.95;51.10;97513.44;6083070;23;20007;-80
2023/07/09 01:01:31;;;;;;;4.55;4.15;;;;;;;23.89;51.29;97513.63;6041953;23;20631;-80
2023/07/09 01:03:59;;;;;;;5.85;4.00;;;;;;;23.80;51.52;97509.44;6043022;23;20012;-79
2023/07/09 01:06:34;;;;;;;5.75;4.78;;;;;;;23.89;51.24;97520.84;6044965;23;20027;-79
2023/07/09 01:09:04;;;;;;;4.85;4.13;;;;;;;23.80;51.46;97518.19;6018700;23;20015;-79
2023/07/09 01:11:30;;;;;;;5.65;4.68;;;;;;;23.81;51.31;97513.66;6078499;23;20019;-79
2023/07/09 01:14:01;;;;;;;4.97;4.13;;;;;;;23.86;51.30;97524.16;6054918;23;20007;-79
2023/07/09 01:16:32;;;;;;;4.82;4.28;;;;;;;23.80;51.48;97528.06;6021077;23;20015;-79
2023/07/09 01:18:58;;;;;;;4.88;3.95;;;;;;;23.66;52.20;97521.09;6045622;23;20007;-79
2023/07/09 01:21:23;;;;;;;4.28;3.92;;;;;;;23.64;51.99;97523.28;6031483;23;20387;-79
2023/07/09 01:23:50;;;;;;;4.68;3.67;;;;;;;23.63;52.30;97524.41;6021348;23;20007;-80
2023/07/09 01:26:21;;;;;;;4.10;3.53;;;;;;;23.66;51.72;97517.66;6021021;23;20010;-79
2023/07/09 01:28:48;;;;;;;5.00;3.95;;;;;;;23.61;51.96;97521.25;6042162;23;20038;-79
2023/07/09 01:31:15;;;;;;;5.50;4.20;;;;;;;23.55;52.17;97519.91;6045454;23;20015;-80
2023/07/09 01:33:41;;;;;;;5.05;3.55;;;;;;;23.50;52.07;97512.13;6052827;23;19999;-80
2023/07/09 01:36:08;;;;;;;5.25;4.32;;;;;;;23.57;51.86;97525.69;6045332;23;20034;-80
2023/07/09 01:38:34;;;;;;;6.07;4.65;;;;;;;23.56;52.13;97526.75;6045846;23;20113;-80
2023/07/09 01:41:00;;;;;;;4.97;4.20;;;;;;;23.52;51.93;97517.88;6042802;23;20378;-79
2023/07/09 01:43:26;;;;;;;7.78;3.90;;;;;;;23.58;52.03;97521.94;6043456;23;20014;-80
2023/07/09 01:45:52;;;;;;;4.45;4.05;;;;;;;23.54;52.16;97528.97;6043561;23;20011;-79
2023/07/09 01:48:20;;;;;;;4.00;3.63;;;;;;;23.53;52.42;97516.81;6019692;23;20114;-80
2023/07/09 01:50:46;;;;;;;3.47;3.17;;;;;;;23.49;52.23;97526.50;6044050;23;20007;-80
2023/07/09 01:53:17;;;;;;;6.80;4.38;;;;;;;23.54;52.50;97521.00;6042752;23;20030;-80
2023/07/09 01:55:43;;;;;;;4.47;3.50;;;;;;;23.46;52.14;97519.16;5992916;23;20094;-80
2023/07/09 01:58:10;;;;;;;5.13;3.72;;;;;;;23.50;51.54;97512.13;6041359;23;20312;-80
2023/07/09 02:00:36;;;;;;;3.92;3.47;;;;;;;23.56;51.59;97519.59;6051132;23;20008;-80
2023/07/09 02:03:03;;;;;;;4.82;3.75;;;;;;;23.63;51.61;97520.94;5997276;23;20007;-80
2023/07/09 02:05:31;;;;;;;5.93;4.05;;;;;;;23.64;51.08;97523.28;6053038;23;20007;-80
2023/07/09 02:07:56;;;;;;;4.68;3.78;;;;;;;23.64;51.18;97514.53;6078076;23;20007;-80
2023/07/09 02:10:22;;;;;;;5.28;3.70;;;;;;;23.70;50.81;97516.69;6053017;23;20199;-80
2023/07/09 02:12:48;;;;;;;4.47;3.63;;;;;;;23.65;51.04;97502.81;6042795;23;20007;-80
2023/07/09 02:15:14;;;;;;;8.73;3.88;;;;;;;23.66;50.96;97509.69;6042610;23;20371;-80
2023/07/09 02:17:39;;;;;;;4.20;3.72;;;;;;;23.65;51.43;97514.22;6051116;23;20011;-80
2023/07/09 02:20:06;;;;;;;5.43;3.95;;;;;;;23.56;51.70;97508.97;6067083;23;20912;-80
2023/07/09 02:22:36;;;;;;;5.10;3.45;;;;;;;23.60;51.49;97516.28;6042469;23;20058;-80
2023/07/09 02:25:02;;;;;;;4.22;3.83;;;;;;;23.65;51.52;97519.53;6044855;23;20007;-80
2023/07/09 02:27:28;;;;;;;6.63;4.32;;;;;;;23.58;51.28;97515.81;6043270;23;20078;-80
2023/07/09 02:29:54;;;;;;;3.97;3.55;;;;;;;23.59;51.52;97520.03;6043161;23;20248;-79
2023/07/09 02:32:25;;;;;;;4.78;3.67;;;;;;;23.61;51.82;97509.88;6019199;23;20046;-80
2023/07/09 02:34:52;;;;;;;5.55;3.80;;;;;;;23.55;51.81;97520.69;6043534;23;20063;-80
2023/07/09 02:37:23;;;;;;;5.30;3.85;;;;;;;23.53;52.00;97522.13;6045050;23;20014;-80
2023/07/09 02:39:48;;;;;;;3.92;3.30;;;;;;;23.48;51.71;97524.94;6080695;23;20007;-80
2023/07/09 02:42:15;;;;;;;6.25;4.53;;;;;;;23.47;52.15;97526.03;5996428;23;20022;-80
2023/07/09 02:44:42;;;;;;;5.22;3.58;;;;;;;23.46;51.95;97527.94;5957260;23;20023;-80
2023/07/09 02:47:08;;;;;;;5.97;4.15;;;;;;;23.50;52.16;97528.84;6055468;23;20061;-80
2023/07/09 02:49:34;;;;;;;4.70;3.78;;;;;;;23.47;52.06;97523.38;6054065;23;20015;-80
2023/07/09 02:51:59;;;;;;;4.18;3.75;;;;;;;23.46;51.92;97522.63;6055550;23;20007;-80
2023/07/09 02:54:25;;;;;;;4.82;3.50;;;;;;;23.44;52.24;97529.34;6054239;23;20006;-80
2023/07/09 02:56:50;;;;;;;5.32;3.85;;;;;;;23.38;52.40;97528.75;6045843;23;20029;-80
2023/07/09 02:59:15;;;;;;;5.90;3.88;;;;;;;23.38;52.30;97526.84;6053794;23;20499;-79
2023/07/09 03:01:41;;;;;;;5.75;4.30;;;;;;;23.32;52.23;97522.84;6021545;23;20082;-80
2023/07/09 03:04:08;;;;;;;4.05;3.42;;;;;;;23.35;52.27;97537.34;6032715;23;20011;-80
2023/07/09 03:06:36;;;;;;;3.97;3.55;;;;;;;23.32;52.06;97541.44;6024196;23;20266;-80
2023/07/09 03:09:04;;;;;;;4.35;3.80;;;;;;;23.26;52.10;97529.41;6055994;23;20038;-80
2023/07/09 03:11:31;;;;;;;4.20;3.70;;;;;;;23.29;52.31;97541.28;6081741;23;20045;-80
2023/07/09 03:13:58;;;;;;;4.28;3.88;;;;;;;23.26;52.28;97540.03;6032631;23;20003;-80
2023/07/09 03:16:23;;;;;;;5.47;3.25;;;;;;;23.21;52.18;97539.44;6081662;23;20072;-80
2023/07/09 03:18:50;;;;;;;4.53;3.63;;;;;;;23.21;52.19;97537.56;6021643;23;20015;-80
2023/07/09 03:21:16;;;;;;;3.45;3.15;;;;;;;23.24;51.94;97544.13;6021122;23;20009;-80
2023/07/09 03:23:41;;;;;;;4.15;3.72;;;;;;;23.27;51.15;97546.13;6031177;23;20857;-80
2023/07/09 03:26:07;;;;;;;4.00;3.70;;;;;;;23.26;51.48;97540.03;6044586;23;20004;-80
2023/07/09 03:28:32;;;;;;;3.95;3.55;;;;;;;23.33;51.36;97545.63;6021026;23;20603;-80
2023/07/09 03:30:58;;;;;;;4.10;3.67;;;;;;;23.44;51.72;97555.91;6021911;23;20003;-80
2023/07/09 03:33:24;;;;;;;4.82;3.55;;;;;;;23.44;51.55;97545.28;6022712;23;20034;-80
2023/07/09 03:35:51;;;;;;;5.75;3.90;;;;;;;23.28;51.91;97548.47;6056104;23;20011;-80
2023/07/09 03:38:16;;;;;;;5.75;4.05;;;;;;;23.29;51.95;97555.34;5959697;23;20003;-80
2023/07/09 03:40:41;;;;;;;4.55;4.10;;;;;;;23.19;52.30;97558.34;6032563;23;20141;-80
2023/07/09 03:43:08;;;;;;;6.70;4.80;;;;;;;23.20;52.36;97559.88;6021630;23;20397;-80
2023/07/09 03:45:35;;;;;;;4.55;4.00;;;;;;;23.16;52.79;97567.72;6056392;23;20003;-80
2023/07/09 03:48:00;;;;;;;4.50;4.10;;;;;;;23.15;52.70;97568.03;6082034;23;20015;-79
2023/07/09 03:50:26;;;;;;;5.13;4.63;;;;;;;23.17;53.01;97569.28;6024126;23;20065;-80
2023/07/09 03:52:51;;;;;;;4.82;4.43;;;;;;;23.11;52.74;97573.19;6046295;23;20057;-80
2023/07/09 03:55:17;;;;;;;5.30;4.00;;;;;;;23.03;52.94;97575.84;6055746;23;20084;-80
2023/07/09 03:57:42;;;;;;;4.95;4.28;;;;;;;23.07;52.65;97584.78;6049411;23;20619;-80
2023/07/09 04:00:10;;;;;;;5.32;4.90;;;;;;;22.99;53.31;97584.44;6015468;23;20625;-80
2023/07/09 04:02:37;;;;;;;5.10;4.22;;;;;;;22.93;53.31;97580.41;6020688;23;20653;-80
2023/07/09 04:05:03;;;;;;;4.55;4.10;;;;;;;22.94;53.63;97576.63;6041044;23;20323;-80
2023/07/09 04:07:28;;;;;;;4.22;3.83;;;;;;;22.94;53.43;97583.84;6016889;23;20175;-80
2023/07/09 04:09:54;;;;;;;4.72;4.10;;;;;;;22.89;53.71;97579.47;6074953;23;20123;-80
2023/07/09 04:12:20;;;;;;;4.75;4.20;;;;;;;22.91;53.80;97587.91;6050035;23;20345;-80
2023/07/09 04:14:45;;;;;;;5.43;4.15;;;;;;;22.82;54.02;97568.53;6018006;23;20175;-80
2023/07/09 04:17:10;;;;;;;4.50;4.07;;;;;;;22.88;54.37;97585.88;5953865;23;20211;-80
2023/07/09 04:19:36;;;;;;;4.47;4.07;;;;;;;22.91;53.89;97585.25;6016734;23;20085;-80
2023/07/09 04:22:01;;;;;;;5.85;4.53;;;;;;;22.93;54.47;97585.72;5991226;23;20265;-80
2023/07/09 04:24:27;;;;;;;3.97;3.55;;;;;;;23.00;53.76;97586.00;6015671;23;20404;-80
2023/07/09 04:26:56;;;;;;;5.03;4.45;;;;;;;23.09;53.64;97587.91;6049841;23;20155;-80
2023/07/09 04:29:22;;;;;;;5.20;4.25;;;;;;;23.12;53.64;97582.75;5953707;23;20335;-80
2023/07/09 04:31:47;;;;;;;5.85;4.45;;;;;;;23.20;53.58;97586.47;6077341;23;20191;-80
2023/07/09 04:34:13;;;;;;;4.80;4.15;;;;;;;23.29;53.18;97589.88;6018129;23;20417;-80
2023/07/09 04:36:39;;;;;;;5.88;4.38;;;;;;;23.19;53.71;97577.72;6028039;23;20191;-80
2023/07/09 04:39:04;;;;;;;4.03;3.60;;;;;;;23.25;54.23;97580.97;6051483;23;20180;-80
2023/07/09 04:41:30;;;;;;;4.43;4.00;;;;;;;23.30;54.40;97588.78;6019242;23;20131;-80
2023/07/09 04:43:55;;;;;;;4.75;4.35;;;;;;;23.25;54.33;97570.34;5955345;23;20171;-80
2023/07/09 04:46:21;;;;;;;4.32;3.90;;;;;;;23.40;54.07;97582.34;6018563;23;20140;-80
2023/07/09 04:48:46;;;;;;;4.85;3.85;;;;;;;23.48;54.17;97588.75;6043196;23;20025;-80
2023/07/09 04:51:12;;;;;;;4.63;3.70;;;;;;;23.53;53.81;97586.69;5955969;23;20307;-81
2023/07/09 04:53:37;;;;;;;6.10;3.88;;;;;;;23.64;53.98;97586.31;6019472;23;20248;-80
2023/07/09 04:56:02;;;;;;;7.20;4.45;;;;;;;23.65;54.10;97578.03;6051990;23;20251;-80
2023/07/09 04:58:29;;;;;;;4.32;3.92;;;;;;;23.70;53.98;97582.38;6043189;23;20261;-80
2023/07/09 05:00:58;;;;;;;5.07;4.00;;;;;;;23.91;53.41;97580.56;5957199;23;20167;-80
2023/07/09 05:03:24;;;;;;;4.47;4.07;;;;;;;23.96;53.56;97592.91;6018770;23;20196;-80
2023/07/09 05:05:49;;;;;;;5.05;4.22;;;;;;;24.00;52.61;97587.72;6053473;23;20165;-80
2023/07/09 05:08:16;;;;;;;4.32;3.92;;;;;;;24.11;52.65;97588.91;6018990;23;20341;-81
2023/07/09 05:10:46;;;;;;;7.35;6.38;;;;;;;24.25;52.99;97589.44;6068325;23;20196;-80
2023/07/09 05:13:12;;;;;;;7.82;7.03;;;;;;;24.30;52.49;97597.25;6043479;23;20173;-80
2023/07/09 05:15:40;;;;;;;9.07;8.20;;;;;;;24.37;51.98;97583.41;6079695;23;20238;-80
2023/07/09 05:18:07;;;;;;;8.10;7.35;;;;;;;24.42;52.46;97582.44;6054987;23;20058;-80
2023/07/09 05:20:33;;;;;;;7.03;6.32;;;;;;;24.56;52.10;97587.53;6052259;23;20226;-80
2023/07/09 05:22:58;;;;;;;6.65;6.05;;;;;;;24.65;52.57;97586.34;6022003;23;20477;-80
2023/07/09 05:25:24;;;;;;;6.93;6.28;;;;;;;24.79;52.92;97582.63;6043821;23;20153;-80
2023/07/09 05:27:49;;;;;;;6.80;6.10;;;;;;;24.94;53.03;97576.69;6018470;23;20015;-80
2023/07/09 05:30:14;;;;;;;6.53;5.93;;;;;;;25.06;53.04;97578.59;6052458;23;20331;-80
2023/07/09 05:32:40;;;;;;;7.68;6.28;;;;;;;25.20;52.42;97586.28;6018990;23;20308;-80
2023/07/09 05:35:06;;;;;;;6.05;5.45;;;;;;;25.35;51.05;97590.25;6056604;23;20319;-80
2023/07/09 05:37:32;;;;;;;5.72;4.70;;;;;;;25.42;50.45;97593.91;6075193;23;20168;-80
2023/07/09 05:39:57;;;;;;;5.20;4.55;;;;;;;25.42;49.90;97593.91;6043349;23;20381;-81
2023/07/09 05:42:22;;;;;;;5.72;5.13;;;;;;;25.55;49.62;97594.72;6050709;23;20081;-80
2023/07/09 05:44:48;;;;;;;5.47;5.00;;;;;;;25.51;49.45;97590.38;6019216;23;20007;-80
2023/07/09 05:47:13;;;;;;;6.93;4.63;;;;;;;25.48;49.70;97601.69;6052847;23;20187;-80
2023/07/09 05:49:39;;;;;;;4.13;3.72;;;;;;;25.49;49.64;97600.59;6041976;23;20337;-80
2023/07/09 05:52:05;;;;;;;5.60;4.90;;;;;;;25.54;49.92;97598.47;6018868;23;20267;-80
2023/07/09 05:54:31;;;;;;;4.35;3.90;;;;;;;25.66;49.71;97596.94;6044327;23;20338;-80
2023/07/09 05:56:56;;;;;;;4.53;4.13;;;;;;;25.77;49.78;97609.50;6056590;23;20171;-80
2023/07/09 05:59:22;;;;;;;5.13;4.50;;;;;;;25.86;49.36;97596.06;6055016;23;20334;-81
2023/07/09 06:01:47;;;;;;;5.18;4.57;;;;;;;25.90;49.31;97588.94;6049741;23;20054;-80
2023/07/09 06:04:13;;;;;;;4.88;4.47;;;;;;;26.14;49.42;97603.38;6017618;23;20275;-81
2023/07/09 06:06:41;;;;;;;4.10;3.78;;;;;;;26.33;48.99;97600.13;6019339;23;20180;-80
2023/07/09 06:09:07;;;;;;;4.25;3.85;;;;;;;26.59;49.04;97607.72;6046511;23;20198;-80
2023/07/09 06:11:33;;;;;;;4.53;4.07;;;;;;;26.87;48.90;97609.66;6017249;23;20301;-80
2023/07/09 06:13:59;;;;;;;4.80;4.40;;;;;;;27.06;48.64;97604.44;6049881;23;20011;-81
2023/07/09 06:16:25;;;;;;;5.05;4.60;;;;;;;27.31;46.50;97609.66;5991721;23;20007;-80
2023/07/09 06:18:50;;;;;;;5.90;4.00;;;;;;;27.60;44.74;97610.38;6050014;23;20389;-81
2023/07/09 06:21:15;;;;;;;4.35;3.97;;;;;;;27.89;43.54;97608.38;6024648;23;20527;-81
2023/07/09 06:23:41;;;;;;;4.40;3.67;;;;;;;28.12;43.50;97605.84;6048590;23;20303;-81
2023/07/09 06:26:06;;;;;;;4.50;4.10;;;;;;;28.26;43.53;97608.03;6051063;23;20313;-80
2023/07/09 06:28:32;;;;;;;4.22;3.85;;;;;;;28.46;43.14;97608.84;6040892;23;20149;-80
2023/07/09 06:30:57;;;;;;;4.60;4.20;;;;;;;28.68;42.93;97607.41;6015465;23;20433;-81
2023/07/09 06:33:25;;;;;;;4.68;4.28;;;;;;;28.92;42.73;97614.38;6049673;23;20313;-81
2023/07/09 06:35:53;;;;;;;5.43;4.20;;;;;;;29.11;42.25;97602.84;6026701;23;20330;-81
2023/07/09 06:38:19;;;;;;;4.72;4.30;;;;;;;29.26;42.10;97596.59;6039717;23;20323;-81
2023/07/09 06:40:45;;;;;;;4.93;4.30;;;;;;;29.53;41.75;97602.03;6074308;23;20112;-81
2023/07/09 06:43:10;;;;;;;4.63;3.92;;;;;;;29.70;41.43;97598.84;6017287;23;20431;-81
2023/07/09 06:45:36;;;;;;;4.57;4.07;;;;;;;29.94;40.89;97594.25;6018548;23;20188;-81
2023/07/09 06:48:01;;;;;;;5.43;4.50;;;;;;;30.19;40.69;97594.56;5993100;23;20187;-81
2023/07/09 06:50:27;;;;;;;5.22;4.45;;;;;;;30.43;40.65;97595.28;6019612;23;20171;-81
2023/07/09 06:52:52;;;;;;;4.22;3.78;;;;;;;30.76;40.63;97601.78;6020423;23;20270;-81
2023/07/09 06:55:18;;;;;;;5.40;4.70;;;;;;;31.06;40.43;97601.00;6026585;23;20186;-81
2023/07/09 06:57:44;;;;;;;5.07;4.38;;;;;;;31.36;40.49;97598.97;6047074;23;20298;-81
2023/07/09 07:00:10;;;;;;;4.82;4.43;;;;;;;31.60;39.29;97593.41;6016236;23;20195;-82
2023/07/09 07:02:36;;;;;;;5.18;4.68;;;;;;;31.93;39.25;97593.25;6064223;23;20351;-81
2023/07/09 07:05:01;;;;;;;6.03;4.50;;;;;;;32.26;39.07;97593.44;6051928;23;20165;-81
2023/07/09 07:07:27;;;;;;;7.03;4.70;;;;;;;32.55;37.46;97585.47;6043084;23;20132;-82
2023/07/09 07:09:52;;;;;;;4.80;4.40;;;;;;;32.57;36.98;97586.63;6052878;23;20165;-82
2023/07/09 07:12:28;;;;;;;4.97;4.57;;;;;;;33.06;36.30;97589.06;6045314;23;20153;-81
2023/07/09 07:14:54;;;;;;;4.65;4.25;;;;;;;33.12;34.92;97576.75;6049336;23;20164;-81
2023/07/09 07:17:20;;;;;;;4.68;4.28;;;;;;;33.38;34.37;97591.81;6071838;23;20553;-81
2023/07/09 07:19:45;;;;;;;4.93;4.53;;;;;;;33.55;34.33;97592.97;6037039;23;20252;-81
2023/07/09 07:22:11;;;;;;;4.97;4.40;;;;;;;33.63;34.17;97581.00;6049749;23;20238;-83
2023/07/09 07:24:36;;;;;;;5.25;4.75;;;;;;;33.78;35.03;97585.25;6039288;23;20164;-81
2023/07/09 07:27:02;;;;;;;4.95;4.55;;;;;;;33.95;33.58;97583.69;6043552;23;20217;-82
2023/07/09 07:29:28;;;;;;;4.32;3.92;;;;;;;34.14;33.91;97582.47;5952428;23;20259;-83
2023/07/09 07:31:54;;;;;;;5.13;4.63;;;;;;;34.31;33.12;97582.84;6052579;23;20069;-81
2023/07/09 07:34:19;;;;;;;4.88;4.20;;;;;;;34.49;32.73;97583.50;6012246;23;20119;-82
2023/07/09 07:36:45;;;;;;;4.72;4.32;;;;;;;34.74;30.96;97581.88;6008648;23;20598;-81
2023/07/09 07:39:10;;;;;;;5.15;4.63;;;;;;;34.85;31.03;97588.00;6011253;23;20034;-81
2023/07/09 07:41:36;;;;;;;4.10;3.70;;;;;;;35.06;30.45;97592.47;6009360;23;20242;-81
2023/07/09 07:44:01;;;;;;;4.55;3.97;;;;;;;34.87;28.97;97586.44;6034218;23;20331;-80
2023/07/09 07:46:28;;;;;;;4.82;3.85;;;;;;;35.15;30.25;97586.63;6076949;23;20172;-83
2023/07/09 07:48:54;;;;;;;4.45;3.70;;;;;;;35.03;30.34;97588.66;6027647;23;20179;-82
2023/07/09 07:51:22;;;;;;;4.90;4.50;;;;;;;35.33;29.95;97586.53;6052216;23;20476;-82
2023/07/09 07:53:48;;;;;;;4.75;4.38;;;;;;;35.44;29.29;97587.22;6024550;23;20199;-83
2023/07/09 07:56:14;;;;;;;4.57;4.20;;;;;;;35.59;29.77;97585.91;6048495;23;20157;-82
2023/07/09 07:58:40;;;;;;;4.95;4.00;;;;;;;35.82;28.75;97587.28;6049088;23;20445;-82
2023/07/09 08:01:05;;;;;;;4.60;4.07;;;;;;;35.86;29.54;97585.28;5958726;23;20337;-81
2023/07/09 08:03:30;;;;;;;5.22;4.75;;;;;;;36.23;28.13;97589.19;6010975;23;20132;-81
2023/07/09 08:05:56;;;;;;;4.80;4.25;;;;;;;35.84;29.63;97581.47;6025461;23;20243;-83
2023/07/09 08:08:21;;;;;;;4.53;4.13;;;;;;;36.06;29.23;97592.84;6044258;23;20289;-82
2023/07/09 08:10:49;;;;;;;4.30;3.90;;;;;;;36.46;26.74;97588.50;6009035;23;20195;-82
2023/07/09 08:13:14;;;;;;;5.00;4.60;;;;;;;36.54;27.82;97587.22;6018862;23;20302;-81
2023/07/09 08:15:42;;;;;;;6.85;4.43;;;;;;;36.43;27.12;97583.13;6013603;23;20239;-81
2023/07/09 08:18:07;;;;;;;4.43;4.03;;;;;;;36.72;27.75;97592.47;6046172;23;20385;-82
2023/07/09 08:20:33;;;;;;;4.78;4.18;;;;;;;36.83;27.73;97586.13;6035366;23;20192;-82
2023/07/09 08:22:59;;;;;;;4.63;4.20;;;;;;;36.92;27.12;97600.69;6056050;23;20072;-83
2023/07/09 08:25:24;;;;;;;4.95;4.45;;;;;;;36.76;26.57;97586.97;5992465;23;20315;-82
2023/07/09 08:27:51;;;;;;;4.95;4.35;;;;;;;36.93;26.30;97591.38;6011216;23;20247;-81
2023/07/09 08:30:16;;;;;;;5.38;4.88;;;;;;;37.02;26.91;97582.72;6070458;23;20167;-81
2023/07/09 08:32:41;;;;;;;5.72;5.03;;;;;;;37.10;27.76;97577.94;6054183;23;20073;-82
2023/07/09 08:35:10;;;;;;;5.32;4.82;;;;;;;37.28;27.48;97573.00;6046668;23;20310;-82
2023/07/09 08:37:35;;;;;;;4.75;4.28;;;;;;;37.43;27.55;97572.78;6071312;23;20397;-81
2023/07/09 08:40:00;;;;;;;5.22;4.75;;;;;;;37.33;27.05;97579.94;6056667;23;20011;-82
2023/07/09 08:42:31;;;;;;;4.47;4.18;;;;;;;37.59;26.88;97575.59;6053826;23;20413;-82
2023/07/09 08:45:17;;;;;;;4.53;4.22;;;;;;;37.97;26.34;97574.56;6055702;23;20616;-81
2023/07/09 08:47:48;;;;;;;5.05;4.65;;;;;;;37.94;24.93;97569.94;5953701;23;20290;-82
2023/07/09 08:50:20;;;;;;;4.75;4.38;;;;;;;38.14;26.06;97562.56;6015943;23;20153;-81
2023/07/09 08:52:48;;;;;;;5.28;4.88;;;;;;;37.97;25.73;97560.97;6078314;23;20328;-82
2023/07/09 08:55:20;;;;;;;5.00;4.60;;;;;;;38.02;25.72;97571.34;6001360;23;20250;-81
2023/07/09 08:57:50;;;;;;;4.55;4.10;;;;;;;38.16;25.24;97557.47;6035190;23;20326;-81
2023/07/09 09:00:22;;;;;;;5.00;4.60;;;;;;;38.16;25.72;97562.91;6040647;23;20422;-82
2023/07/09 09:03:08;;;;;;;5.30;4.90;;;;;;;38.48;25.03;97566.19;6037301;23;20175;-82
2023/07/09 09:05:37;;;;;;;5.63;4.93;;;;;;;38.70;24.71;97566.50;6052535;23;20179;-81
2023/07/09 09:08:11;;;;;;;5.07;4.57;;;;;;;38.72;24.37;97566.84;6037831;23;20073;-83
2023/07/09 09:10:47;;;;;;;4.80;4.40;;;;;;;38.69;24.61;97567.69;6046942;23;20264;-82
2023/07/09 09:13:16;;;;;;;4.93;4.47;;;;;;;38.57;24.56;97558.94;6061320;23;20246;-83
2023/07/09 09:15:45;;;;;;;4.90;4.50;;;;;;;38.57;24.26;97553.50;6018797;23;20204;-83
2023/07/09 09:18:28;;;;;;;4.90;4.50;;;;;;;38.81;24.37;97567.00;6017212;23;20252;-83
2023/07/09 09:21:12;;;;;;;4.93;4.45;;;;;;;39.03;23.84;97561.06;6044552;23;20496;-82
2023/07/09 09:23:39;;;;;;;;;;;;;;;39.40;23.00;97553.56;6013163;23;20291;-82
2023/07/09 09:26:17;;;;;;;4.88;4.45;;;;;;;39.05;22.84;97545.84;6034523;23;20193;-81
2023/07/09 09:28:43;;;;;;;5.68;4.60;;;;;;;39.32;23.16;97551.03;6037121;23;20302;-82
2023/07/09 09:31:11;;;;;;;5.20;4.03;;;;;;;39.52;23.15;97544.72;6024918;23;20262;-82
2023/07/09 09:33:45;;;;;;;4.90;4.50;;;;;;;39.43;22.74;97549.97;6035842;23;20426;-82
2023/07/09 09:36:19;;;;;;;5.20;4.22;;;;;;;39.52;22.90;97547.44;6008717;23;20266;-83
2023/07/09 09:38:45;;;;;;;5.30;4.45;;;;;;;39.65;22.10;97536.59;6068250;23;20164;-81
2023/07/09 09:41:37;;;;;;;5.00;4.60;;;;;;;39.89;22.74;97537.84;6047761;23;20265;-82
2023/07/09 09:44:04;;;;;;;5.35;4.63;;;;;;;39.98;21.49;97534.53;6010535;23;20157;-82
2023/07/09 09:46:31;;;;;;;5.03;4.72;;;;;;;40.05;21.28;97531.63;6010221;23;20385;-82
2023/07/09 09:49:01;;;;;;;5.38;4.55;;;;;;;40.12;21.70;97538.03;6052378;23;20215;-83
2023/07/09 09:51:26;;;;;;;5.63;5.07;;;;;;;39.92;22.62;97541.69;5986832;23;20219;-82
2023/07/09 09:54:02;;;;;;;4.93;4.57;;;;;;;40.34;20.57;97538.97;6008770;23;20262;-81
2023/07/09 09:56:35;;;;;;;5.22;4.82;;;;;;;40.04;21.29;97537.50;6045322;23;20239;-81
2023/07/09 09:59:02;;;;;;;4.30;4.00;;;;;;;40.11;21.20;97531.84;6035400;23;20161;-82
2023/07/09 10:01:32;;;;;;;5.50;4.35;;;;;;;40.22;20.10;97536.97;6010196;23;20191;-82
2023/07/09 10:03:59;;;;;;;5.32;4.80;;;;;;;40.34;19.83;97522.59;6043194;23;20294;-82
2023/07/09 10:06:58;;;;;;;5.05;4.63;;;;;;;40.44;20.91;97524.25;6012865;23;20179;-81
2023/07/09 10:09:34;;;;;;;5.57;4.40;;;;;;;40.44;20.94;97529.72;5980294;23;20337;-82
2023/07/09 10:12:27;;;;;;;5.18;4.78;;;;;;;40.68;20.42;97526.63;6011931;23;20204;-81
2023/07/09 10:15:02;;;;;;;4.95;4.65;;;;;;;40.62;20.38;97525.69;6035061;23;20348;-81
2023/07/09 10:17:48;;;;;;;5.20;4.85;;;;;;;40.71;20.26;97528.50;6038789;23;20128;-83
2023/07/09 10:20:36;;;;;;;4.95;4.55;;;;;;;40.42;20.02;97521.19;6030150;23;20243;-82
2023/07/09 10:23:22;;;;;;;5.15;4.65;;;;;;;40.22;19.75;97517.88;6045012;23;20609;-82
2023/07/09 10:25:52;;;;;;;5.43;4.97;;;;;;;40.65;19.70;97518.56;6033361;23;20246;-82
2023/07/09 10:28:47;;;;;;;5.30;4.90;;;;;;;40.73;19.78;97515.16;6008998;23;20303;-81
2023/07/09 10:31:39;;;;;;;4.70;4.30;;;;;;;40.75;18.67;97518.25;6043277;23;20552;-82
2023/07/09 10:34:45;;;;;;;5.15;4.65;;;;;;;40.93;18.98;97519.66;6009881;23;20360;-83
2023/07/09 10:37:32;;;;;;;4.95;4.45;;;;;;;41.31;19.50;97513.34;6021945;23;20267;-81
2023/07/09 10:40:00;;;;;;;5.07;4.68;;;;;;;41.34;18.85;97512.47;6031942;23;20407;-82
2023/07/09 10:42:35;;;;;;;4.60;4.30;;;;;;;41.02;18.86;97518.97;5975319;23;20242;-84
2023/07/09 10:45:16;;;;;;;5.20;4.80;;;;;;;41.31;20.06;97507.88;6009519;23;20339;-81
2023/07/09 10:47:48;;;;;;;4.97;4.47;;;;;;;40.82;19.60;97503.59;6005380;23;20409;-82
2023/07/09 10:50:29;;;;;;;6.93;4.65;;;;;;;40.80;19.54;97519.63;6001241;23;20338;-82
2023/07/09 10:52:57;;;;;;;5.07;4.60;;;;;;;41.28;19.35;97519.69;6013799;23;20187;-81
2023/07/09 10:55:30;;;;;;;4.90;4.50;;;;;;;41.58;18.43;97525.72;5976276;23;20407;-82
2023/07/09 10:58:00;;;;;;;5.30;4.90;;;;;;;41.71;18.54;97521.72;6007701;23;20170;-82
2023/07/09 11:00:37;;;;;;;5.18;4.78;;;;;;;41.64;19.42;97519.19;6007082;23;20278;-82
2023/07/09 11:03:17;;;;;;;5.13;4.65;;;;;;;41.52;17.85;97518.06;5997508;23;20087;-81
2023/07/09 11:05:42;;;;;;;4.88;4.57;;;;;;;41.45;18.77;97520.28;6007395;23;20080;-82
2023/07/09 11:08:15;;;;;;;4.97;4.57;;;;;;;41.67;17.83;97506.66;6031506;23;20212;-82
2023/07/09 11:10:52;;;;;;;4.60;4.30;;;;;;;41.65;18.14;97495.38;5991752;23;20160;-82
2023/07/09 11:13:20;;;;;;;5.35;4.95;;;;;;;41.59;17.59;97516.28;6042029;23;20073;-83
2023/07/09 11:15:48;;;;;;;4.72;4.22;;;;;;;41.35;18.10;97512.03;6033146;23;20629;-83
2023/07/09 11:18:21;;;;;;;4.82;4.22;;;;;;;40.72;18.10;97505.47;6019495;23;20385;-82
2023/07/09 11:20:55;;;;;;;4.70;4.30;;;;;;;40.78;19.25;97506.41;6032459;23;20281;-82
2023/07/09 11:23:24;;;;;;;4.80;4.40;;;;;;;40.88;18.30;97499.13;6041210;23;20788;-82
2023/07/09 11:26:02;;;;;;;5.00;4.57;;;;;;;40.88;18.01;97499.13;6010691;23;20199;-82
2023/07/09 11:28:39;;;;;;;4.97;4.55;;;;;;;40.70;18.54;97505.13;6067926;23;20601;-81
2023/07/09 11:31:15;;;;;;;5.10;4.55;;;;;;;40.34;17.21;97503.50;6035612;23;20186;-82
2023/07/09 11:34:01;;;;;;;5.97;4.05;;;;;;;39.94;18.83;97494.94;6036018;23;20187;-84
2023/07/09 11:36:29;;;;;;;5.00;4.60;;;;;;;39.74;18.74;97493.09;5944068;23;20188;-82
2023/07/09 11:38:55;;;;;;;5.88;4.75;;;;;;;39.56;18.65;97493.59;6039694;23;20454;-85
2023/07/09 11:41:33;;;;;;;5.63;4.22;;;;;;;39.86;19.35;97497.84;6015230;23;20641;-82